NCAR-RAP Real-Time Weather Data

Output produced by METARs form (12 August 2020  18:54 UTC)
found at http://weather.rap.ucar.edu/surface/
 
KALS 121752Z AUTO 05004KT 10SM CLR 27/M01 A3032 RMK AO2 SLP166 T02671011 10272 20061 57011
KALS 121652Z AUTO 11004KT 10SM CLR 25/M01 A3033 RMK AO2 SLP177 T02501011
KALS 121552Z AUTO VRB03KT 10SM CLR 23/M03 A3034 RMK AO2 SLP177 T02281033
KALS 121452Z AUTO 00000KT 10SM CLR 18/M02 A3036 RMK AO2 SLP182 T01831022 51014
KALS 121352Z AUTO 08005KT 10SM CLR 14/M03 A3035 RMK AO2 SLP178 T01391028 TSNO
KALS 121252Z AUTO 10006KT 10SM CLR 08/M02 A3034 RMK AO2 SLP181 T00781022 TSNO
KALS 121152Z AUTO 00000KT 10SM CLR 08/M03 A3031 RMK AO2 SLP164 T00781028 10128 20056 51006 TSNO $
KALS 121052Z AUTO 03004KT 10SM BKN120 07/M02 A3030 RMK AO2 SLP166 T00671017 TSNO $
KALS 120952Z AUTO 00000KT 10SM CLR 07/M03 A3029 RMK AO2 SLP162 T00671028 TSNO $
KALS 120852Z AUTO 13004KT 10SM CLR 08/M02 A3029 RMK AO2 SLP154 T00781022 53002 $
KALS 120752Z AUTO 00000KT 10SM CLR 07/M03 A3028 RMK AO2 SLP158 T00721028 $
KALS 120652Z AUTO 28005KT 10SM CLR 10/M04 A3028 RMK AO2 SLP152 T01001044 403110033 $
KALS 120552Z AUTO 33003KT 10SM CLR 12/M03 A3028 RMK AO2 SLP152 T01221033 10294 20106 51014 $
KALS 120452Z AUTO 00000KT 10SM CLR 11/M03 A3027 RMK AO2 SLP157 T01111033 $
KALS 120352Z AUTO 00000KT 10SM CLR 14/M06 A3026 RMK AO2 SLP151 T01441056 $
KALS 120252Z AUTO 21009KT 10SM CLR 19/M07 A3023 RMK AO2 SLP136 T01941072 53006 $
KALS 120152Z AUTO 23014KT 10SM CLR 23/M09 A3021 RMK AO2 PK WND 23027/0101 SLP138 T02331089 $
KALS 120052Z AUTO 23015G24KT 10SM CLR 27/M09 A3020 RMK AO2 PK WND 21027/0001 SLP135 T02721089 $
KALS 112352Z AUTO 22019G28KT 10SM CLR 29/M08 A3021 RMK AO2 PK WND 24028/2344 SLP139 T02941078 10311 20267 $